Time;durP1;ratioP1;P1;durP2;ratioP2;P2;SDS_P1;SDS_P2;PMS_P1;PMS_P2;Temp;Humidity;BMP_temperature;BMP_pressure;BME280_temperature;BME280_humidity;BME280_pressure;Samples;Min_cycle;Max_cycle;Signal;HPM_P1;HPM_P2
2021/01/07 00:01:41;;;;;;;3.20;2.10;;;1.70;87.70;;;;;;5066570;28;20443;-85
2021/01/07 00:04:07;;;;;;;3.57;1.77;;;1.70;88.40;;;;;;5070059;28;20039;-85
2021/01/07 00:06:34;;;;;;;4.00;1.93;;;1.70;88.30;;;;;;5064136;28;20857;-85
2021/01/07 00:09:00;;;;;;;3.83;2.20;;;1.70;88.30;;;;;;5058730;28;20033;-85
2021/01/07 00:11:26;;;;;;;2.67;1.97;;;1.70;87.60;;;;;;5066608;28;20041;-85
2021/01/07 00:13:53;;;;;;;3.63;2.23;;;1.70;88.50;;;;;;5067452;28;20049;-85
2021/01/07 00:16:19;;;;;;;2.97;1.73;;;1.70;87.90;;;;;;5065958;28;20047;-85
2021/01/07 00:18:45;;;;;;;3.17;1.90;;;1.70;88.30;;;;;;5066424;28;20128;-85
2021/01/07 00:21:12;;;;;;;4.20;1.80;;;1.70;88.30;;;;;;5060033;28;20040;-85
2021/01/07 00:23:38;;;;;;;3.93;1.50;;;1.70;88.80;;;;;;5067227;28;20128;-85
2021/01/07 00:26:04;;;;;;;3.13;1.73;;;1.70;88.30;;;;;;5064693;28;20033;-84
2021/01/07 00:28:30;;;;;;;2.23;1.67;;;1.80;87.90;;;;;;5069815;28;20064;-85
2021/01/07 00:30:56;;;;;;;4.17;1.50;;;1.70;87.50;;;;;;5062148;28;20115;-85
2021/01/07 00:33:22;;;;;;;2.00;1.50;;;1.80;87.70;;;;;;5062030;28;20468;-84
2021/01/07 00:35:47;;;;;;;3.00;1.80;;;1.80;88.50;;;;;;5068116;28;20036;-84
2021/01/07 00:38:14;;;;;;;3.50;1.60;;;1.80;88.10;;;;;;5069789;28;20082;-85
2021/01/07 00:40:40;;;;;;;3.07;1.80;;;1.80;88.20;;;;;;5063454;28;20116;-85
2021/01/07 00:43:06;;;;;;;4.23;1.87;;;1.80;88.50;;;;;;5066404;28;20477;-85
2021/01/07 00:45:33;;;;;;;2.03;1.53;;;1.80;88.80;;;;;;5066553;28;20036;-85
2021/01/07 00:47:59;;;;;;;3.47;1.97;;;1.80;88.50;;;;;;5062477;28;20036;-74
2021/01/07 00:50:25;;;;;;;2.25;1.40;;;1.80;88.50;;;;;;5058614;28;20115;-74
2021/01/07 00:52:51;;;;;;;4.50;1.60;;;1.80;89.00;;;;;;5059477;28;20060;-75
2021/01/07 00:55:18;;;;;;;3.07;2.13;;;1.80;88.30;;;;;;5060056;28;21087;-74
2021/01/07 00:57:44;;;;;;;4.57;1.90;;;1.80;89.20;;;;;;5056873;28;20068;-74
2021/01/07 01:00:14;;;;;;;5.07;1.60;;;1.80;89.10;;;;;;5063408;28;20095;-74
2021/01/07 01:02:40;;;;;;;4.40;2.00;;;1.80;89.00;;;;;;5059243;28;20033;-75
2021/01/07 01:05:07;;;;;;;4.80;1.90;;;1.80;89.10;;;;;;5062164;28;20442;-84
2021/01/07 01:07:33;;;;;;;4.35;2.45;;;1.80;89.00;;;;;;5063428;28;20432;-84
2021/01/07 01:10:00;;;;;;;5.63;2.47;;;1.80;88.80;;;;;;5060316;28;20098;-84
2021/01/07 01:12:26;;;;;;;3.42;1.67;;;1.80;88.30;;;;;;5062766;28;20029;-84
2021/01/07 01:14:52;;;;;;;2.17;1.77;;;1.80;88.30;;;;;;5063678;28;20500;-84
2021/01/07 01:17:17;;;;;;;2.97;2.00;;;1.80;88.50;;;;;;5063926;28;20052;-84
2021/01/07 01:19:43;;;;;;;4.30;1.90;;;1.80;88.40;;;;;;5064027;28;20469;-84
2021/01/07 01:22:10;;;;;;;4.17;1.97;;;1.80;88.00;;;;;;5061065;28;20083;-84
2021/01/07 01:24:36;;;;;;;4.83;2.00;;;1.80;88.10;;;;;;5064322;28;20040;-84
2021/01/07 01:27:03;;;;;;;2.53;1.80;;;1.80;88.90;;;;;;5062571;28;20405;-84
2021/01/07 01:29:29;;;;;;;3.60;1.83;;;1.80;88.50;;;;;;5063194;28;20035;-84
2021/01/07 01:31:55;;;;;;;3.37;1.80;;;1.80;88.30;;;;;;5064421;28;20028;-84
2021/01/07 01:34:22;;;;;;;2.33;1.60;;;1.80;88.80;;;;;;5065585;28;20178;-84
2021/01/07 01:36:49;;;;;;;2.87;1.90;;;1.80;89.60;;;;;;5064158;28;20033;-85
2021/01/07 01:39:15;;;;;;;3.38;1.60;;;1.80;88.80;;;;;;5064772;28;20055;-75
2021/01/07 01:41:43;;;;;;;3.40;1.63;;;1.80;88.60;;;;;;5047452;28;20040;-75
2021/01/07 01:44:10;;;;;;;4.30;1.87;;;1.80;88.80;;;;;;5046249;28;20044;-75
2021/01/07 01:46:36;;;;;;;3.80;2.00;;;1.80;88.80;;;;;;5062546;28;20037;-75
2021/01/07 01:49:03;;;;;;;3.88;1.77;;;1.80;88.40;;;;;;5057284;28;20700;-75
2021/01/07 01:51:30;;;;;;;2.53;1.80;;;1.80;88.20;;;;;;5042475;28;20105;-75
2021/01/07 01:53:57;;;;;;;3.40;2.10;;;1.80;88.10;;;;;;5058277;28;20079;-75
2021/01/07 01:56:24;;;;;;;2.20;1.45;;;1.80;89.10;;;;;;5046933;28;20060;-74
2021/01/07 01:58:50;;;;;;;2.40;1.87;;;1.80;88.50;;;;;;5056870;28;20051;-75
2021/01/07 02:01:17;;;;;;;4.53;1.80;;;1.80;89.00;;;;;;5047144;28;20502;-75
2021/01/07 02:03:43;;;;;;;2.38;1.65;;;1.80;89.20;;;;;;5046925;28;20036;-74
2021/01/07 02:06:13;;;;;;;2.70;1.63;;;1.80;88.70;;;;;;5057579;28;20045;-74
2021/01/07 02:08:42;;;;;;;2.40;2.00;;;1.80;89.00;;;;;;5057213;28;20055;-74
2021/01/07 02:11:11;;;;;;;2.08;1.80;;;1.80;88.60;;;;;;5058701;28;20062;-74
2021/01/07 02:13:38;;;;;;;3.53;1.60;;;1.80;88.60;;;;;;5057798;28;20047;-74
2021/01/07 02:16:05;;;;;;;4.28;1.85;;;1.80;88.30;;;;;;5062522;28;20093;-74
2021/01/07 02:18:31;;;;;;;2.20;1.48;;;1.80;88.30;;;;;;5057135;28;20047;-74
2021/01/07 02:21:01;;;;;;;2.22;1.50;;;1.80;88.30;;;;;;5040397;28;20040;-74
2021/01/07 02:23:27;;;;;;;5.28;2.10;;;1.80;88.30;;;;;;5045942;28;20036;-75
2021/01/07 02:25:53;;;;;;;3.30;1.53;;;1.80;88.10;;;;;;5056211;28;20040;-75
2021/01/07 02:28:19;;;;;;;2.60;1.80;;;1.80;88.00;;;;;;5058061;28;20045;-75
2021/01/07 02:30:46;;;;;;;2.87;1.70;;;1.80;88.00;;;;;;5058761;28;20086;-75
2021/01/07 02:33:13;;;;;;;2.33;1.40;;;1.80;87.90;;;;;;5061915;28;20416;-75
2021/01/07 02:35:39;;;;;;;2.50;1.83;;;1.80;88.00;;;;;;5060593;28;20059;-75
2021/01/07 02:38:05;;;;;;;3.08;2.25;;;1.80;88.20;;;;;;5045589;28;20064;-75
2021/01/07 02:40:32;;;;;;;4.13;1.90;;;1.80;88.30;;;;;;5038543;28;20067;-75
2021/01/07 02:42:58;;;;;;;2.83;1.73;;;1.80;88.20;;;;;;5045486;28;20037;-75
2021/01/07 02:45:24;;;;;;;4.63;1.80;;;1.80;88.70;;;;;;5055022;28;20032;-75
2021/01/07 02:47:50;;;;;;;4.07;2.20;;;1.80;88.60;;;;;;5061243;28;20495;-75
2021/01/07 02:50:16;;;;;;;3.07;2.10;;;1.80;88.30;;;;;;5057472;28;20055;-75
2021/01/07 02:52:41;;;;;;;4.15;2.15;;;1.80;88.70;;;;;;5056269;28;20415;-74
2021/01/07 02:55:08;;;;;;;3.40;2.67;;;1.80;88.60;;;;;;5055754;28;20599;-75
2021/01/07 02:57:34;;;;;;;3.03;2.03;;;1.80;89.10;;;;;;5056440;28;20509;-75
2021/01/07 03:00:00;;;;;;;3.70;1.80;;;1.80;88.50;;;;;;5062020;28;20040;-75
2021/01/07 03:02:26;;;;;;;3.00;1.90;;;1.80;89.20;;;;;;5061115;28;20043;-75
2021/01/07 03:04:51;;;;;;;4.00;1.90;;;1.80;88.90;;;;;;5039712;28;20029;-75
2021/01/07 03:07:17;;;;;;;4.15;2.40;;;1.80;89.00;;;;;;5056105;28;20090;-75
2021/01/07 03:09:44;;;;;;;2.93;1.57;;;1.80;88.60;;;;;;5062076;28;20563;-75
2021/01/07 03:12:14;;;;;;;2.70;1.60;;;1.80;88.60;;;;;;5056211;28;20037;-75
2021/01/07 03:14:41;;;;;;;4.03;2.00;;;1.80;88.60;;;;;;5055562;28;20043;-75
2021/01/07 03:17:07;;;;;;;2.92;1.88;;;1.80;88.70;;;;;;5054961;28;20033;-75
2021/01/07 03:19:33;;;;;;;3.70;1.73;;;1.80;88.90;;;;;;5057872;28;20508;-74
2021/01/07 03:21:59;;;;;;;3.22;1.88;;;1.80;88.40;;;;;;5055443;28;20670;-73
2021/01/07 03:24:25;;;;;;;2.80;1.90;;;1.80;88.50;;;;;;5054646;28;20170;-74
2021/01/07 03:26:51;;;;;;;3.85;2.35;;;1.70;88.60;;;;;;5055719;28;20036;-75
2021/01/07 03:29:17;;;;;;;3.47;2.07;;;1.80;89.10;;;;;;5057962;28;20043;-75
2021/01/07 03:31:42;;;;;;;2.83;2.05;;;1.80;89.10;;;;;;5056645;28;20028;-75
2021/01/07 03:34:08;;;;;;;4.77;1.80;;;1.80;88.70;;;;;;5039189;28;20042;-75
2021/01/07 03:36:34;;;;;;;2.70;1.70;;;1.80;88.60;;;;;;5056741;28;20472;-74
2021/01/07 03:39:00;;;;;;;5.18;2.20;;;1.80;89.60;;;;;;5055500;28;20037;-75
2021/01/07 03:41:25;;;;;;;3.07;1.90;;;1.70;88.70;;;;;;5027887;28;20128;-75
2021/01/07 03:43:51;;;;;;;4.50;1.90;;;1.80;88.70;;;;;;5061569;28;20112;-75
2021/01/07 03:46:17;;;;;;;4.73;1.70;;;1.80;89.60;;;;;;5060943;28;20029;-75
2021/01/07 03:48:42;;;;;;;2.90;1.80;;;1.80;89.30;;;;;;5061420;28;20036;-74
2021/01/07 03:51:08;;;;;;;2.95;1.70;;;1.80;89.00;;;;;;5028675;28;20041;-74
2021/01/07 03:53:34;;;;;;;6.70;2.50;;;1.80;89.30;;;;;;5055392;28;20033;-75
2021/01/07 03:56:00;;;;;;;3.43;2.27;;;1.80;89.30;;;;;;5061578;28;20044;-75
2021/01/07 03:58:26;;;;;;;4.07;2.00;;;1.80;89.00;;;;;;5045344;28;20606;-74
2021/01/07 04:00:52;;;;;;;3.03;2.00;;;1.80;89.70;;;;;;5054699;28;20037;-74
2021/01/07 04:03:17;;;;;;;3.47;2.47;;;1.80;89.10;;;;;;5056124;28;20045;-74
2021/01/07 04:05:43;;;;;;;3.60;2.43;;;1.80;89.30;;;;;;5056202;28;20036;-74
2021/01/07 04:08:09;;;;;;;2.30;1.73;;;1.80;89.00;;;;;;5055895;28;20028;-74
2021/01/07 04:10:35;;;;;;;2.70;1.67;;;1.80;89.50;;;;;;5063101;28;22202;-75
2021/01/07 04:13:01;;;;;;;2.10;1.80;;;1.80;89.20;;;;;;5054407;28;20446;-74
2021/01/07 04:15:27;;;;;;;3.47;2.40;;;1.80;89.40;;;;;;5059513;28;20032;-75
2021/01/07 04:17:53;;;;;;;4.43;1.80;;;1.80;89.30;;;;;;5058986;28;20040;-75
2021/01/07 04:20:18;;;;;;;5.37;2.00;;;1.80;88.90;;;;;;5064172;28;20369;-83
2021/01/07 04:22:44;;;;;;;1.90;1.60;;;1.80;89.20;;;;;;5074716;28;20037;-84
2021/01/07 04:25:10;;;;;;;3.83;1.50;;;1.70;89.70;;;;;;5073142;28;20043;-83
2021/01/07 04:27:36;;;;;;;3.67;1.65;;;1.80;89.90;;;;;;5066540;28;20056;-84
2021/01/07 04:30:04;;;;;;;2.22;1.50;;;1.80;89.30;;;;;;5068577;28;20480;-83
2021/01/07 04:32:29;;;;;;;2.83;2.20;;;1.80;89.10;;;;;;5065061;28;20068;-83
2021/01/07 04:34:55;;;;;;;3.10;1.90;;;1.80;89.70;;;;;;5072317;28;20033;-84
2021/01/07 04:37:21;;;;;;;2.73;1.97;;;1.80;89.80;;;;;;5066575;28;20039;-83
2021/01/07 04:39:46;;;;;;;2.33;1.80;;;1.80;89.50;;;;;;5067209;28;20041;-83
2021/01/07 04:42:13;;;;;;;4.20;1.87;;;1.80;90.00;;;;;;5069497;28;20028;-83
2021/01/07 04:44:40;;;;;;;3.60;1.90;;;1.80;90.10;;;;;;5069504;28;20036;-83
2021/01/07 04:47:06;;;;;;;3.70;1.90;;;1.80;89.40;;;;;;5073916;28;20506;-84
2021/01/07 04:49:32;;;;;;;3.93;1.67;;;1.80;90.80;;;;;;5060998;28;20037;-83
2021/01/07 04:51:58;;;;;;;3.65;1.80;;;1.80;90.40;;;;;;5070243;28;20041;-83
2021/01/07 04:54:24;;;;;;;2.80;1.63;;;1.80;90.20;;;;;;5071146;28;20407;-83
2021/01/07 04:56:51;;;;;;;3.15;2.00;;;1.80;90.10;;;;;;5061468;28;20045;-83
2021/01/07 04:59:17;;;;;;;2.47;1.65;;;1.80;90.00;;;;;;5070549;28;20119;-83
2021/01/07 05:01:45;;;;;;;4.47;1.73;;;1.80;90.20;;;;;;5065202;28;20107;-83
2021/01/07 05:04:14;;;;;;;5.68;2.22;;;1.90;90.10;;;;;;5065180;28;20029;-83
2021/01/07 05:06:39;;;;;;;2.97;1.80;;;1.90;89.90;;;;;;5055152;28;20048;-83
2021/01/07 05:09:07;;;;;;;3.87;1.83;;;1.90;89.90;;;;;;5073674;28;20035;-83
2021/01/07 05:11:33;;;;;;;5.63;2.00;;;1.90;90.10;;;;;;5068791;28;20512;-84
2021/01/07 05:14:07;;;;;;;4.13;1.83;;;1.90;90.10;;;;;;5066479;28;20098;-84
2021/01/07 05:16:33;;;;;;;3.58;2.20;;;1.90;90.00;;;;;;5068884;28;20037;-84
2021/01/07 05:19:06;;;;;;;3.90;1.88;;;1.90;90.00;;;;;;5068205;28;20065;-84
2021/01/07 05:21:32;;;;;;;5.38;1.75;;;1.90;90.10;;;;;;5065196;28;20033;-83
2021/01/07 05:23:59;;;;;;;3.70;2.17;;;1.90;90.10;;;;;;5069256;28;20089;-84
2021/01/07 05:26:25;;;;;;;4.10;1.98;;;1.90;90.20;;;;;;5052507;28;20076;-84
2021/01/07 05:28:56;;;;;;;5.33;1.80;;;1.90;90.20;;;;;;5059245;28;20041;-84
2021/01/07 05:31:25;;;;;;;3.17;2.10;;;2.00;90.20;;;;;;5059685;28;20059;-83
2021/01/07 05:33:52;;;;;;;7.23;2.50;;;2.00;90.10;;;;;;5070524;28;20040;-83
2021/01/07 05:36:26;;;;;;;3.75;1.67;;;1.90;90.20;;;;;;5062234;28;20033;-84
2021/01/07 05:38:54;;;;;;;2.27;1.90;;;1.90;90.10;;;;;;5063374;28;20036;-75
2021/01/07 05:41:22;;;;;;;6.25;2.28;;;1.90;90.10;;;;;;5058094;28;21304;-74
2021/01/07 05:44:03;;;;;;;4.37;1.90;;;1.90;90.10;;;;;;5058283;28;20033;-75
2021/01/07 05:46:33;;;;;;;3.70;2.05;;;1.90;90.10;;;;;;5063302;28;20041;-75
2021/01/07 05:49:00;;;;;;;15.73;8.40;;;1.90;90.20;;;;;;5057748;28;20041;-74
2021/01/07 05:51:27;;;;;;;7.33;3.77;;;1.90;90.40;;;;;;5058254;28;20043;-75
2021/01/07 05:53:55;;;;;;;5.30;2.50;;;1.90;90.10;;;;;;5057275;28;20487;-75
2021/01/07 05:56:21;;;;;;;3.03;2.03;;;1.90;90.10;;;;;;5066674;28;20391;-83
2021/01/07 05:58:49;;;;;;;5.10;2.45;;;1.90;90.30;;;;;;5066689;28;20049;-84
2021/01/07 06:01:22;;;;;;;4.10;3.03;;;1.90;90.20;;;;;;5072515;28;20040;-84
2021/01/07 06:03:53;;;;;;;5.30;2.40;;;1.90;90.30;;;;;;5069909;28;20036;-84
2021/01/07 06:06:21;;;;;;;2.63;1.97;;;1.90;90.00;;;;;;5068775;28;20033;-83
2021/01/07 06:08:51;;;;;;;3.42;1.75;;;1.80;90.10;;;;;;5064861;28;20120;-84
2021/01/07 06:11:18;;;;;;;3.53;1.98;;;1.90;90.00;;;;;;5072553;28;20101;-85
2021/01/07 06:13:47;;;;;;;2.53;1.53;;;1.90;90.00;;;;;;5068940;28;20427;-85
2021/01/07 06:16:17;;;;;;;2.97;1.90;;;1.90;90.00;;;;;;5068411;28;20039;-84
2021/01/07 06:18:43;;;;;;;3.58;1.98;;;1.90;90.40;;;;;;5067226;28;20136;-85
2021/01/07 06:21:10;;;;;;;2.85;2.15;;;1.90;90.20;;;;;;5070867;28;20480;-85
2021/01/07 06:23:47;;;;;;;4.93;2.17;;;1.90;90.10;;;;;;5061385;28;20469;-85
2021/01/07 06:26:24;;;;;;;3.60;2.25;;;1.90;90.20;;;;;;5069907;28;20029;-83
2021/01/07 06:28:56;;;;;;;3.92;2.30;;;1.90;90.10;;;;;;5064626;28;20098;-85
2021/01/07 06:31:31;;;;;;;5.03;2.33;;;1.90;90.20;;;;;;5062563;28;20032;-85
2021/01/07 06:33:57;;;;;;;5.15;2.30;;;1.90;90.40;;;;;;5069758;28;20059;-86
2021/01/07 06:36:36;;;;;;;5.03;2.60;;;1.90;90.40;;;;;;5061939;28;20494;-85
2021/01/07 06:39:04;;;;;;;5.03;2.75;;;1.90;90.20;;;;;;5063689;28;20041;-84
2021/01/07 06:41:30;;;;;;;3.67;2.80;;;1.90;90.30;;;;;;5065474;28;20178;-75
2021/01/07 06:43:57;;;;;;;5.20;2.60;;;1.90;90.10;;;;;;5039820;28;20028;-75
2021/01/07 06:46:42;;;;;;;4.90;2.38;;;1.90;90.10;;;;;;5056842;28;20052;-75
2021/01/07 06:49:28;;;;;;;3.83;3.00;;;2.00;90.10;;;;;;5058176;28;20060;-74
2021/01/07 06:52:00;;;;;;;5.20;2.87;;;1.90;90.40;;;;;;5055822;28;20903;-74
2021/01/07 06:54:32;;;;;;;3.95;2.80;;;1.90;90.30;;;;;;5057382;28;20116;-74
2021/01/07 06:57:01;;;;;;;6.22;2.75;;;2.00;90.40;;;;;;5056740;28;20398;-74
2021/01/07 06:59:27;;;;;;;5.63;2.83;;;2.00;90.50;;;;;;5054381;28;20049;-75
2021/01/07 07:01:56;;;;;;;3.92;2.90;;;2.00;90.40;;;;;;5061633;28;20047;-74
2021/01/07 07:04:29;;;;;;;5.07;3.15;;;2.00;90.20;;;;;;5060495;28;20033;-74
2021/01/07 07:07:04;;;;;;;3.67;2.90;;;2.00;90.20;;;;;;5064088;28;20044;-85
2021/01/07 07:09:39;;;;;;;10.55;7.82;;;2.10;90.20;;;;;;5062900;28;20036;-84
2021/01/07 07:12:06;;;;;;;4.22;2.60;;;2.10;90.20;;;;;;5059874;28;20037;-85
2021/01/07 07:14:32;;;;;;;5.35;4.18;;;2.10;90.20;;;;;;5064085;28;20031;-84
2021/01/07 07:17:05;;;;;;;4.70;3.08;;;2.10;90.40;;;;;;5051214;28;20140;-84
2021/01/07 07:19:31;;;;;;;8.18;4.40;;;2.10;90.30;;;;;;5061072;28;20044;-81
2021/01/07 07:22:01;;;;;;;7.25;4.32;;;2.10;90.20;;;;;;5051152;28;20116;-81
2021/01/07 07:24:35;;;;;;;7.13;4.13;;;2.10;90.00;;;;;;5066056;28;20030;-81
2021/01/07 07:27:04;;;;;;;6.43;3.15;;;2.10;90.20;;;;;;5059125;28;20060;-81
2021/01/07 07:29:33;;;;;;;6.93;3.28;;;2.10;90.00;;;;;;5064900;28;20044;-81
2021/01/07 07:31:59;;;;;;;7.25;3.75;;;2.10;90.30;;;;;;5046910;28;20544;-80
2021/01/07 07:34:31;;;;;;;8.13;3.97;;;2.10;90.10;;;;;;5052783;28;20052;-81
2021/01/07 07:36:58;;;;;;;7.47;4.10;;;2.10;90.20;;;;;;5066319;28;20037;-81
2021/01/07 07:39:26;;;;;;;5.50;4.22;;;2.10;90.20;;;;;;5067063;28;20035;-77
2021/01/07 07:42:09;;;;;;;7.50;4.55;;;2.10;90.20;;;;;;5067010;28;20120;-83
2021/01/07 07:44:34;;;;;;;7.35;4.53;;;2.10;90.10;;;;;;5062062;28;20039;-81
2021/01/07 07:47:01;;;;;;;5.18;3.67;;;2.10;90.20;;;;;;5070064;28;20032;-82
2021/01/07 07:49:26;;;;;;;7.03;4.35;;;2.10;90.10;;;;;;5066551;28;20033;-75
2021/01/07 07:51:52;;;;;;;8.32;4.85;;;2.10;90.10;;;;;;5060309;28;21205;-74
2021/01/07 07:54:18;;;;;;;6.82;4.43;;;2.20;90.10;;;;;;5065017;28;20073;-75
2021/01/07 07:56:44;;;;;;;9.63;6.78;;;2.10;90.00;;;;;;5059488;28;20377;-74
2021/01/07 07:59:11;;;;;;;6.80;4.80;;;2.20;90.20;;;;;;5060997;28;20051;-74
2021/01/07 08:01:46;;;;;;;8.25;5.75;;;2.20;90.00;;;;;;5061787;28;20045;-74
2021/01/07 08:04:17;;;;;;;8.88;4.82;;;2.20;90.10;;;;;;5065059;28;20162;-74
2021/01/07 08:06:44;;;;;;;7.35;4.97;;;2.20;90.10;;;;;;5061292;28;20706;-75
2021/01/07 08:09:12;;;;;;;12.27;6.82;;;2.20;90.10;;;;;;5060199;28;20480;-75
2021/01/07 08:11:49;;;;;;;9.75;5.15;;;2.20;90.20;;;;;;5059969;28;20044;-74
2021/01/07 08:14:23;;;;;;;8.10;5.70;;;2.20;90.30;;;;;;5047444;28;20506;-73
2021/01/07 08:16:57;;;;;;;7.82;4.70;;;2.30;90.10;;;;;;5059891;28;20040;-73
2021/01/07 08:19:33;;;;;;;11.55;8.15;;;2.30;90.00;;;;;;5043308;28;20041;-74
2021/01/07 08:22:00;;;;;;;7.60;5.40;;;2.30;90.00;;;;;;5047422;28;20036;-74
2021/01/07 08:24:27;;;;;;;7.85;4.80;;;2.30;90.20;;;;;;5048396;28;20075;-73
2021/01/07 08:27:13;;;;;;;10.60;5.00;;;2.30;90.20;;;;;;5059558;28;20052;-74
2021/01/07 08:29:40;;;;;;;8.25;5.50;;;2.30;90.00;;;;;;5057879;28;20044;-74
2021/01/07 08:32:10;;;;;;;11.90;6.30;;;2.30;90.20;;;;;;5062294;28;20037;-74
2021/01/07 08:34:36;;;;;;;19.17;7.40;;;2.30;90.00;;;;;;5059014;28;20094;-75
2021/01/07 08:37:17;;;;;;;21.35;6.13;;;2.40;90.10;;;;;;5046346;28;20037;-73
2021/01/07 08:39:44;;;;;;;26.33;5.75;;;2.40;90.10;;;;;;5057636;28;20048;-74
2021/01/07 08:42:10;;;;;;;16.48;6.53;;;2.40;90.00;;;;;;5062597;28;20457;-74
2021/01/07 08:44:37;;;;;;;14.07;6.32;;;2.40;90.00;;;;;;5056793;28;20037;-75
2021/01/07 08:47:04;;;;;;;21.50;6.65;;;2.40;90.00;;;;;;5059066;28;20052;-73
2021/01/07 08:49:29;;;;;;;12.32;6.30;;;2.40;90.30;;;;;;5057361;28;20033;-74
2021/01/07 08:51:59;;;;;;;9.88;6.30;;;2.40;90.20;;;;;;5045944;28;20597;-74
2021/01/07 08:54:25;;;;;;;16.45;6.45;;;2.40;90.30;;;;;;5057494;28;20044;-73
2021/01/07 08:56:53;;;;;;;9.20;5.88;;;2.40;90.10;;;;;;5054818;28;20055;-74
2021/01/07 08:59:21;;;;;;;9.90;7.32;;;2.40;90.10;;;;;;5056738;28;20040;-73
2021/01/07 09:01:49;;;;;;;11.43;5.75;;;2.50;90.00;;;;;;5057476;28;20037;-73
2021/01/07 09:04:24;;;;;;;8.52;6.07;;;2.50;90.10;;;;;;5056393;28;20072;-73
2021/01/07 09:07:13;;;;;;;7.72;5.25;;;2.50;90.00;;;;;;5047496;28;20930;-74
2021/01/07 09:09:54;;;;;;;10.45;5.70;;;2.50;89.90;;;;;;5053450;28;20069;-73
2021/01/07 09:12:28;;;;;;;8.48;5.68;;;2.60;89.80;;;;;;5057294;28;20071;-73
2021/01/07 09:15:05;;;;;;;7.97;5.20;;;2.60;89.80;;;;;;5055843;28;20040;-73
2021/01/07 09:17:42;;;;;;;15.30;9.05;;;2.60;89.70;;;;;;5057185;28;20098;-73
2021/01/07 09:20:09;;;;;;;7.88;4.78;;;2.70;89.90;;;;;;5058986;28;20037;-73
2021/01/07 09:22:35;;;;;;;9.43;5.60;;;2.70;89.80;;;;;;5045557;28;20056;-73
2021/01/07 09:25:01;;;;;;;9.18;5.85;;;2.70;89.60;;;;;;5057673;28;20082;-74
2021/01/07 09:27:26;;;;;;;6.75;4.78;;;2.70;89.50;;;;;;5059432;28;20052;-74
2021/01/07 09:29:52;;;;;;;8.13;4.95;;;2.70;89.50;;;;;;5059387;28;20064;-73
2021/01/07 09:32:18;;;;;;;8.43;5.22;;;2.80;89.50;;;;;;5057882;28;20063;-74
2021/01/07 09:34:45;;;;;;;7.50;5.07;;;2.80;89.30;;;;;;5059199;28;20059;-74
2021/01/07 09:37:14;;;;;;;4.70;3.95;;;2.80;89.40;;;;;;5061784;28;20033;-74
2021/01/07 09:39:40;;;;;;;9.52;5.13;;;2.90;89.40;;;;;;5059203;28;20043;-74
2021/01/07 09:42:06;;;;;;;6.97;4.60;;;2.90;89.20;;;;;;5058170;28;20477;-73
2021/01/07 09:44:34;;;;;;;7.80;4.75;;;3.00;89.20;;;;;;5063045;28;20037;-74
2021/01/07 09:47:00;;;;;;;4.72;4.18;;;3.00;89.00;;;;;;5059294;28;20043;-74
2021/01/07 09:49:26;;;;;;;8.10;4.45;;;3.10;88.90;;;;;;5063499;28;20039;-74
2021/01/07 09:51:53;;;;;;;6.90;4.32;;;3.10;88.90;;;;;;5063021;28;20182;-74
2021/01/07 09:54:20;;;;;;;6.80;4.00;;;3.10;88.80;;;;;;5055856;28;20552;-74
2021/01/07 09:56:46;;;;;;;8.65;4.38;;;3.20;88.80;;;;;;5062046;28;20041;-74
2021/01/07 09:59:13;;;;;;;7.57;4.55;;;3.20;88.70;;;;;;5040846;28;20044;-74
2021/01/07 10:01:39;;;;;;;6.80;3.70;;;3.30;88.60;;;;;;5057481;28;20043;-74
2021/01/07 10:04:05;;;;;;;5.07;3.53;;;3.30;88.50;;;;;;5043061;28;20041;-73
2021/01/07 10:06:31;;;;;;;8.15;4.45;;;3.40;88.40;;;;;;5045645;28;20052;-75
2021/01/07 10:08:57;;;;;;;5.68;3.83;;;3.40;88.40;;;;;;5056172;28;20638;-73
2021/01/07 10:11:23;;;;;;;5.53;4.15;;;3.40;88.40;;;;;;5061158;28;20043;-73
2021/01/07 10:13:48;;;;;;;6.43;4.13;;;3.50;88.30;;;;;;5056093;28;20132;-73
2021/01/07 10:16:14;;;;;;;5.55;4.07;;;3.50;88.10;;;;;;5056671;28;20048;-73
2021/01/07 10:18:44;;;;;;;5.72;4.10;;;3.50;88.10;;;;;;5061342;28;20546;-73
2021/01/07 10:21:15;;;;;;;7.10;4.03;;;3.60;88.00;;;;;;5057221;28;20111;-74
2021/01/07 10:23:41;;;;;;;6.30;3.78;;;3.60;87.90;;;;;;5056715;28;20064;-75
2021/01/07 10:26:10;;;;;;;5.80;4.10;;;3.60;87.90;;;;;;5061021;28;20120;-74
2021/01/07 10:28:37;;;;;;;7.68;4.45;;;3.60;88.20;;;;;;5056368;28;20048;-74
2021/01/07 10:31:03;;;;;;;4.13;3.08;;;3.70;88.10;;;;;;5054910;28;20036;-74
2021/01/07 10:33:33;;;;;;;4.63;3.30;;;3.70;88.00;;;;;;5056561;28;20098;-74
2021/01/07 10:36:00;;;;;;;4.85;3.58;;;3.70;87.90;;;;;;5059596;28;20081;-75
2021/01/07 10:38:26;;;;;;;5.32;2.88;;;3.80;87.80;;;;;;5058297;28;20175;-74
2021/01/07 10:40:53;;;;;;;4.32;3.45;;;3.80;87.70;;;;;;5057710;28;20040;-74
2021/01/07 10:43:22;;;;;;;3.40;2.55;;;3.80;87.80;;;;;;5055929;28;20469;-74
2021/01/07 10:45:53;;;;;;;5.35;2.22;;;3.80;88.30;;;;;;5057295;28;20484;-74
2021/01/07 10:48:21;;;;;;;2.03;1.48;;;3.80;88.00;;;;;;5054192;28;20033;-74
2021/01/07 10:50:48;;;;;;;3.20;1.58;;;3.80;87.80;;;;;;5057251;28;20032;-74
2021/01/07 10:53:30;;;;;;;3.80;1.77;;;3.80;87.60;;;;;;5061361;28;20110;-74
2021/01/07 10:56:04;;;;;;;6.03;1.88;;;3.80;87.50;;;;;;5057740;28;20872;-74
2021/01/07 10:58:42;;;;;;;3.53;1.92;;;3.90;87.50;;;;;;5058429;28;20033;-74
2021/01/07 11:01:42;;;;;;;3.85;1.70;;;3.80;87.50;;;;;;5038941;28;20044;-73
2021/01/07 11:04:25;;;;;;;4.70;1.40;;;3.80;87.50;;;;;;5055490;28;20040;-73
2021/01/07 11:06:58;;;;;;;2.20;1.23;;;3.80;87.50;;;;;;5057793;28;20055;-73
2021/01/07 11:09:29;;;;;;;1.85;1.20;;;3.90;87.30;;;;;;5045061;28;20047;-74
2021/01/07 11:12:02;;;;;;;4.05;1.30;;;3.90;87.20;;;;;;5057462;28;20041;-73
2021/01/07 11:14:42;;;;;;;3.80;1.50;;;3.90;87.40;;;;;;5061831;28;20036;-73
2021/01/07 11:17:23;;;;;;;4.18;2.15;;;3.90;87.40;;;;;;5056352;28;20052;-73
2021/01/07 11:19:50;;;;;;;3.33;0.90;;;3.90;87.30;;;;;;5071330;28;20033;-73
2021/01/07 11:22:24;;;;;;;3.00;1.40;;;3.90;87.10;;;;;;5058352;28;20496;-73
2021/01/07 11:24:51;;;;;;;3.05;1.50;;;3.90;87.10;;;;;;5056327;28;20086;-73
2021/01/07 11:27:18;;;;;;;1.73;1.27;;;3.80;87.20;;;;;;5056983;28;20076;-76
2021/01/07 11:29:45;;;;;;;2.80;0.90;;;3.90;87.10;;;;;;5027387;28;20400;-78
2021/01/07 11:32:11;;;;;;;2.65;1.10;;;3.90;86.90;;;;;;5045558;28;20056;-78
2021/01/07 11:34:38;;;;;;;3.45;1.00;;;3.90;87.00;;;;;;5061823;28;20040;-77
2021/01/07 11:37:30;;;;;;;3.63;1.10;;;3.90;86.70;;;;;;5060998;28;20059;-77
2021/01/07 11:40:27;;;;;;;1.60;0.77;;;4.00;86.70;;;;;;5059653;28;20840;-78
2021/01/07 11:42:58;;;;;;;2.72;2.15;;;4.00;86.50;;;;;;5056507;28;20045;-77
2021/01/07 11:45:33;;;;;;;1.00;0.85;;;3.90;86.20;;;;;;5060715;28;20028;-74
2021/01/07 11:48:07;;;;;;;1.52;0.60;;;4.00;86.40;;;;;;5057505;28;20036;-74
2021/01/07 11:51:03;;;;;;;4.75;0.82;;;4.00;86.20;;;;;;5052694;28;20123;-74
2021/01/07 11:53:32;;;;;;;2.40;2.20;;;3.90;85.90;;;;;;5038246;28;20150;-75
2021/01/07 11:55:59;;;;;;;2.35;1.10;;;4.00;86.00;;;;;;5044543;28;20036;-74
2021/01/07 11:58:27;;;;;;;0.85;0.52;;;4.00;86.00;;;;;;5060000;28;20037;-73
2021/01/07 12:01:00;;;;;;;2.45;0.82;;;4.00;85.60;;;;;;5053308;28;20366;-73
2021/01/07 12:03:36;;;;;;;1.02;0.50;;;4.00;85.40;;;;;;5060245;28;20535;-73
2021/01/07 12:06:06;;;;;;;2.65;0.73;;;4.00;85.20;;;;;;5055717;28;20052;-73
2021/01/07 12:09:07;;;;;;;2.88;0.68;;;4.00;85.30;;;;;;5037463;28;20043;-73
2021/01/07 12:11:43;;;;;;;0.80;0.60;;;4.00;85.40;;;;;;5055917;28;20049;-75
2021/01/07 12:14:16;;;;;;;2.08;0.65;;;4.00;85.40;;;;;;5042239;28;20055;-73
2021/01/07 12:16:55;;;;;;;1.13;0.60;;;4.10;85.40;;;;;;5056643;28;20084;-72
2021/01/07 12:19:23;;;;;;;1.50;0.70;;;4.10;85.30;;;;;;5059565;28;20043;-73
2021/01/07 12:21:49;;;;;;;3.25;0.63;;;4.10;85.30;;;;;;5056535;28;20043;-73
2021/01/07 12:24:21;;;;;;;2.60;0.70;;;4.10;85.60;;;;;;5055861;28;20032;-73
2021/01/07 12:26:48;;;;;;;1.15;0.65;;;4.10;85.20;;;;;;5038577;28;20045;-73
2021/01/07 12:29:21;;;;;;;1.00;0.80;;;4.10;85.40;;;;;;5037109;28;20051;-73
2021/01/07 12:32:02;;;;;;;2.45;1.02;;;4.10;85.40;;;;;;5046582;28;20033;-74
2021/01/07 12:34:58;;;;;;;1.75;0.70;;;4.10;85.30;;;;;;5060457;28;20033;-73
2021/01/07 12:37:27;;;;;;;1.02;0.63;;;4.10;85.20;;;;;;5059415;28;20033;-73
2021/01/07 12:40:06;;;;;;;1.15;0.80;;;4.20;85.20;;;;;;5060280;28;20078;-73
2021/01/07 12:42:51;;;;;;;3.45;1.08;;;4.20;85.40;;;;;;5059205;28;20917;-73
2021/01/07 12:45:17;;;;;;;5.22;1.08;;;4.20;85.30;;;;;;5057988;28;20135;-73
2021/01/07 12:47:44;;;;;;;1.85;1.25;;;4.20;85.20;;;;;;5058009;28;20067;-74
2021/01/07 12:50:13;;;;;;;3.50;0.70;;;4.20;84.90;;;;;;5059369;28;20488;-73
2021/01/07 12:52:39;;;;;;;1.98;1.08;;;4.20;84.90;;;;;;5063950;28;20036;-73
2021/01/07 12:55:09;;;;;;;1.10;0.70;;;4.20;85.20;;;;;;5047660;28;20055;-73
2021/01/07 12:57:49;;;;;;;1.45;0.90;;;4.10;85.40;;;;;;5060031;28;20123;-72
2021/01/07 13:00:21;;;;;;;1.40;1.13;;;4.10;85.40;;;;;;5059132;28;20041;-73
2021/01/07 13:03:00;;;;;;;0.88;0.82;;;4.10;85.20;;;;;;5059575;28;20042;-73
2021/01/07 13:05:32;;;;;;;1.98;0.75;;;4.10;85.00;;;;;;5058591;28;20043;-73